sensor_id;sensor_type;location;lat;lon;timestamp;temperature;humidity
5980;DHT22;3016;50.308;8.258;2022-09-09T00:02:22;16.00;1.00
5980;DHT22;3016;50.308;8.258;2022-09-09T00:05:51;16.00;1.00
5980;DHT22;3016;50.308;8.258;2022-09-09T00:15:59;15.90;1.00
5980;DHT22;3016;50.308;8.258;2022-09-09T00:22:21;15.80;1.00
5980;DHT22;3016;50.308;8.258;2022-09-09T00:26:02;15.80;1.40
5980;DHT22;3016;50.308;8.258;2022-09-09T00:29:03;15.80;1.00
5980;DHT22;3016;50.308;8.258;2022-09-09T00:32:18;15.80;3.20
5980;DHT22;3016;50.308;8.258;2022-09-09T00:35:25;15.80;3.10
5980;DHT22;3016;50.308;8.258;2022-09-09T00:38:38;15.70;2.40
5980;DHT22;3016;50.308;8.258;2022-09-09T00:41:59;15.60;1.00
5980;DHT22;3016;50.308;8.258;2022-09-09T00:45:35;15.60;2.90
5980;DHT22;3016;50.308;8.258;2022-09-09T00:48:51;15.50;3.90
5980;DHT22;3016;50.308;8.258;2022-09-09T00:55:47;15.40;5.20
5980;DHT22;3016;50.308;8.258;2022-09-09T00:59:08;15.30;4.30
5980;DHT22;3016;50.308;8.258;2022-09-09T01:02:28;15.30;7.90
5980;DHT22;3016;50.308;8.258;2022-09-09T01:06:33;15.20;8.90
5980;DHT22;3016;50.308;8.258;2022-09-09T01:12:39;15.20;6.20
5980;DHT22;3016;50.308;8.258;2022-09-09T01:15:44;15.20;6.40
5980;DHT22;3016;50.308;8.258;2022-09-09T01:18:50;15.10;9.00
5980;DHT22;3016;50.308;8.258;2022-09-09T01:22:03;15.00;8.00
5980;DHT22;3016;50.308;8.258;2022-09-09T01:28:46;14.90;11.00
5980;DHT22;3016;50.308;8.258;2022-09-09T01:34:54;14.70;13.30
5980;DHT22;3016;50.308;8.258;2022-09-09T01:37:55;14.60;13.20
5980;DHT22;3016;50.308;8.258;2022-09-09T01:40:56;14.60;14.30
5980;DHT22;3016;50.308;8.258;2022-09-09T01:43:58;14.50;15.60
5980;DHT22;3016;50.308;8.258;2022-09-09T01:46:59;14.50;17.30
5980;DHT22;3016;50.308;8.258;2022-09-09T01:50:00;14.40;20.50
5980;DHT22;3016;50.308;8.258;2022-09-09T01:53:02;14.40;19.70
5980;DHT22;3016;50.308;8.258;2022-09-09T02:03:07;14.30;21.40
5980;DHT22;3016;50.308;8.258;2022-09-09T02:09:31;14.10;22.10
5980;DHT22;3016;50.308;8.258;2022-09-09T02:12:32;14.10;22.90
5980;DHT22;3016;50.308;8.258;2022-09-09T02:15:47;14.00;23.00
5980;DHT22;3016;50.308;8.258;2022-09-09T02:18:53;14.00;23.90
5980;DHT22;3016;50.308;8.258;2022-09-09T02:21:59;13.90;26.30
5980;DHT22;3016;50.308;8.258;2022-09-09T02:25:02;13.90;26.20
5980;DHT22;3016;50.308;8.258;2022-09-09T02:28:07;13.90;26.10
5980;DHT22;3016;50.308;8.258;2022-09-09T02:31:10;13.90;24.50
5980;DHT22;3016;50.308;8.258;2022-09-09T02:34:12;13.80;28.50
5980;DHT22;3016;50.308;8.258;2022-09-09T02:37:15;13.90;32.10
5980;DHT22;3016;50.308;8.258;2022-09-09T02:40:18;13.90;34.40
5980;DHT22;3016;50.308;8.258;2022-09-09T02:43:19;13.90;34.20
5980;DHT22;3016;50.308;8.258;2022-09-09T02:50:41;14.00;33.50
5980;DHT22;3016;50.308;8.258;2022-09-09T02:53:53;14.10;34.50
5980;DHT22;3016;50.308;8.258;2022-09-09T02:57:17;14.20;36.60
5980;DHT22;3016;50.308;8.258;2022-09-09T03:00:27;14.20;35.10
5980;DHT22;3016;50.308;8.258;2022-09-09T03:03:29;14.20;34.60
5980;DHT22;3016;50.308;8.258;2022-09-09T03:06:30;14.20;34.10
5980;DHT22;3016;50.308;8.258;2022-09-09T03:09:31;14.30;37.50
5980;DHT22;3016;50.308;8.258;2022-09-09T03:12:35;14.30;37.60
5980;DHT22;3016;50.308;8.258;2022-09-09T03:15:35;14.40;36.00
5980;DHT22;3016;50.308;8.258;2022-09-09T03:18:36;14.40;36.00
5980;DHT22;3016;50.308;8.258;2022-09-09T03:21:37;14.40;34.20
5980;DHT22;3016;50.308;8.258;2022-09-09T03:24:37;14.30;35.50
5980;DHT22;3016;50.308;8.258;2022-09-09T03:27:38;14.40;37.80
5980;DHT22;3016;50.308;8.258;2022-09-09T03:30:39;14.30;37.20
5980;DHT22;3016;50.308;8.258;2022-09-09T03:33:40;14.30;36.70
5980;DHT22;3016;50.308;8.258;2022-09-09T03:36:41;14.30;37.80
5980;DHT22;3016;50.308;8.258;2022-09-09T03:39:42;14.30;38.60
5980;DHT22;3016;50.308;8.258;2022-09-09T03:42:42;14.30;38.90
5980;DHT22;3016;50.308;8.258;2022-09-09T03:45:46;14.30;35.90
5980;DHT22;3016;50.308;8.258;2022-09-09T03:48:48;14.40;38.50
5980;DHT22;3016;50.308;8.258;2022-09-09T03:51:48;14.40;36.00
5980;DHT22;3016;50.308;8.258;2022-09-09T03:54:49;14.40;35.90
5980;DHT22;3016;50.308;8.258;2022-09-09T03:57:50;14.40;31.90
5980;DHT22;3016;50.308;8.258;2022-09-09T04:00:58;14.50;31.10
5980;DHT22;3016;50.308;8.258;2022-09-09T04:03:59;14.50;29.80
5980;DHT22;3016;50.308;8.258;2022-09-09T04:06:59;14.60;29.70
5980;DHT22;3016;50.308;8.258;2022-09-09T04:10:00;14.60;30.30
5980;DHT22;3016;50.308;8.258;2022-09-09T04:13:01;14.60;27.80
5980;DHT22;3016;50.308;8.258;2022-09-09T04:16:02;14.60;27.90
5980;DHT22;3016;50.308;8.258;2022-09-09T04:19:04;14.60;29.50
5980;DHT22;3016;50.308;8.258;2022-09-09T04:22:06;14.60;28.10
5980;DHT22;3016;50.308;8.258;2022-09-09T04:25:07;14.60;26.70
5980;DHT22;3016;50.308;8.258;2022-09-09T04:28:08;14.60;28.40
5980;DHT22;3016;50.308;8.258;2022-09-09T04:31:14;14.60;30.70
5980;DHT22;3016;50.308;8.258;2022-09-09T04:34:18;14.70;32.10
5980;DHT22;3016;50.308;8.258;2022-09-09T04:37:18;14.60;30.90
5980;DHT22;3016;50.308;8.258;2022-09-09T04:40:19;14.60;31.60
5980;DHT22;3016;50.308;8.258;2022-09-09T04:43:20;14.60;31.10
5980;DHT22;3016;50.308;8.258;2022-09-09T04:46:22;14.60;35.10
5980;DHT22;3016;50.308;8.258;2022-09-09T04:49:23;14.60;34.70
5980;DHT22;3016;50.308;8.258;2022-09-09T04:52:24;14.60;36.60
5980;DHT22;3016;50.308;8.258;2022-09-09T04:55:25;14.60;38.30
5980;DHT22;3016;50.308;8.258;2022-09-09T04:58:25;14.60;36.10
5980;DHT22;3016;50.308;8.258;2022-09-09T05:01:27;14.60;36.00
5980;DHT22;3016;50.308;8.258;2022-09-09T05:04:28;14.60;36.70
5980;DHT22;3016;50.308;8.258;2022-09-09T05:07:29;14.60;37.80
5980;DHT22;3016;50.308;8.258;2022-09-09T05:10:32;14.60;38.20
5980;DHT22;3016;50.308;8.258;2022-09-09T05:13:33;14.60;39.20
5980;DHT22;3016;50.308;8.258;2022-09-09T05:16:34;14.60;39.20
5980;DHT22;3016;50.308;8.258;2022-09-09T05:19:35;14.60;39.20
5980;DHT22;3016;50.308;8.258;2022-09-09T05:22:35;14.60;41.40
5980;DHT22;3016;50.308;8.258;2022-09-09T05:25:36;14.60;41.90
5980;DHT22;3016;50.308;8.258;2022-09-09T05:28:37;14.60;42.60
5980;DHT22;3016;50.308;8.258;2022-09-09T05:31:38;14.70;41.80
5980;DHT22;3016;50.308;8.258;2022-09-09T05:34:39;14.70;43.30
5980;DHT22;3016;50.308;8.258;2022-09-09T05:37:40;14.80;42.50
5980;DHT22;3016;50.308;8.258;2022-09-09T05:40:47;14.80;41.60
5980;DHT22;3016;50.308;8.258;2022-09-09T05:43:48;14.90;38.00
5980;DHT22;3016;50.308;8.258;2022-09-09T05:46:49;15.00;31.90
5980;DHT22;3016;50.308;8.258;2022-09-09T05:49:49;15.10;29.20
5980;DHT22;3016;50.308;8.258;2022-09-09T05:52:54;15.10;21.80
5980;DHT22;3016;50.308;8.258;2022-09-09T05:56:00;15.20;17.10
5980;DHT22;3016;50.308;8.258;2022-09-09T05:59:00;15.30;16.00
5980;DHT22;3016;50.308;8.258;2022-09-09T06:02:01;15.40;14.30
5980;DHT22;3016;50.308;8.258;2022-09-09T06:05:02;15.40;15.70
5980;DHT22;3016;50.308;8.258;2022-09-09T06:08:03;15.50;13.20
5980;DHT22;3016;50.308;8.258;2022-09-09T06:14:18;15.60;4.80
5980;DHT22;3016;50.308;8.258;2022-09-09T06:17:19;15.70;2.40
5980;DHT22;3016;50.308;8.258;2022-09-09T06:20:19;15.80;1.00
5980;DHT22;3016;50.308;8.258;2022-09-09T06:23:20;15.90;1.00
5980;DHT22;3016;50.308;8.258;2022-09-09T06:26:23;15.90;1.00
5980;DHT22;3016;50.308;8.258;2022-09-09T06:29:25;16.00;1.00
5980;DHT22;3016;50.308;8.258;2022-09-09T06:32:26;16.10;1.00
5980;DHT22;3016;50.308;8.258;2022-09-09T06:35:27;16.30;1.00
5980;DHT22;3016;50.308;8.258;2022-09-09T06:38:28;16.40;1.00
5980;DHT22;3016;50.308;8.258;2022-09-09T06:41:31;16.50;1.00
5980;DHT22;3016;50.308;8.258;2022-09-09T06:44:33;16.50;1.00
5980;DHT22;3016;50.308;8.258;2022-09-09T06:47:34;16.50;1.00
5980;DHT22;3016;50.308;8.258;2022-09-09T06:50:34;16.50;1.00
5980;DHT22;3016;50.308;8.258;2022-09-09T06:53:36;16.50;1.00
5980;DHT22;3016;50.308;8.258;2022-09-09T06:56:39;16.50;1.00
5980;DHT22;3016;50.308;8.258;2022-09-09T06:59:42;16.60;1.00
5980;DHT22;3016;50.308;8.258;2022-09-09T07:02:42;16.60;1.00
5980;DHT22;3016;50.308;8.258;2022-09-09T07:05:54;16.60;1.00
5980;DHT22;3016;50.308;8.258;2022-09-09T07:09:02;16.60;1.00
5980;DHT22;3016;50.308;8.258;2022-09-09T07:12:04;16.60;1.00
5980;DHT22;3016;50.308;8.258;2022-09-09T07:15:06;16.70;1.00
5980;DHT22;3016;50.308;8.258;2022-09-09T07:18:07;16.70;1.00
5980;DHT22;3016;50.308;8.258;2022-09-09T07:21:12;16.80;1.00
5980;DHT22;3016;50.308;8.258;2022-09-09T07:24:13;16.90;1.00
5980;DHT22;3016;50.308;8.258;2022-09-09T07:27:14;16.90;1.00
5980;DHT22;3016;50.308;8.258;2022-09-09T07:30:15;17.00;1.00
5980;DHT22;3016;50.308;8.258;2022-09-09T07:33:15;17.00;1.00
5980;DHT22;3016;50.308;8.258;2022-09-09T07:36:18;17.00;1.00
5980;DHT22;3016;50.308;8.258;2022-09-09T07:39:23;17.00;1.00
5980;DHT22;3016;50.308;8.258;2022-09-09T07:42:24;17.00;1.00
5980;DHT22;3016;50.308;8.258;2022-09-09T07:45:24;17.00;1.00
5980;DHT22;3016;50.308;8.258;2022-09-09T07:48:26;17.10;1.00
5980;DHT22;3016;50.308;8.258;2022-09-09T07:51:29;17.30;1.00
5980;DHT22;3016;50.308;8.258;2022-09-09T07:54:37;17.40;1.00
5980;DHT22;3016;50.308;8.258;2022-09-09T07:57:38;17.40;1.00
5980;DHT22;3016;50.308;8.258;2022-09-09T08:00:39;17.40;1.00
5980;DHT22;3016;50.308;8.258;2022-09-09T08:03:45;17.40;1.00
5980;DHT22;3016;50.308;8.258;2022-09-09T08:06:51;17.50;1.00
5980;DHT22;3016;50.308;8.258;2022-09-09T08:09:53;17.50;1.00
5980;DHT22;3016;50.308;8.258;2022-09-09T08:12:55;17.50;1.00
5980;DHT22;3016;50.308;8.258;2022-09-09T08:19:14;17.60;1.00
5980;DHT22;3016;50.308;8.258;2022-09-09T08:22:15;17.70;1.00
5980;DHT22;3016;50.308;8.258;2022-09-09T08:25:16;17.80;1.00
5980;DHT22;3016;50.308;8.258;2022-09-09T08:28:17;17.90;1.00
5980;DHT22;3016;50.308;8.258;2022-09-09T08:34:21;18.00;1.00
5980;DHT22;3016;50.308;8.258;2022-09-09T08:37:22;18.00;1.00
5980;DHT22;3016;50.308;8.258;2022-09-09T08:40:28;18.10;1.00
5980;DHT22;3016;50.308;8.258;2022-09-09T08:43:31;18.00;1.00
5980;DHT22;3016;50.308;8.258;2022-09-09T08:46:42;18.00;1.00
5980;DHT22;3016;50.308;8.258;2022-09-09T08:53:44;17.90;1.00
5980;DHT22;3016;50.308;8.258;2022-09-09T08:56:50;17.90;1.00
5980;DHT22;3016;50.308;8.258;2022-09-09T08:59:51;18.00;1.00
5980;DHT22;3016;50.308;8.258;2022-09-09T09:03:28;18.10;1.00
5980;DHT22;3016;50.308;8.258;2022-09-09T09:10:28;18.10;1.00
5980;DHT22;3016;50.308;8.258;2022-09-09T09:13:52;18.10;1.00
5980;DHT22;3016;50.308;8.258;2022-09-09T09:17:04;18.40;1.00
5980;DHT22;3016;50.308;8.258;2022-09-09T09:23:55;19.60;1.00
5980;DHT22;3016;50.308;8.258;2022-09-09T09:27:00;20.00;1.00
5980;DHT22;3016;50.308;8.258;2022-09-09T09:30:20;20.00;1.00
5980;DHT22;3016;50.308;8.258;2022-09-09T09:36:52;20.20;1.00
5980;DHT22;3016;50.308;8.258;2022-09-09T09:40:16;20.10;1.00
5980;DHT22;3016;50.308;8.258;2022-09-09T09:43:21;20.50;1.00
5980;DHT22;3016;50.308;8.258;2022-09-09T09:46:25;20.90;1.00
5980;DHT22;3016;50.308;8.258;2022-09-09T09:49:26;21.30;1.00
5980;DHT22;3016;50.308;8.258;2022-09-09T09:52:29;21.60;1.00
5980;DHT22;3016;50.308;8.258;2022-09-09T09:55:32;21.60;1.00
5980;DHT22;3016;50.308;8.258;2022-09-09T09:58:47;21.40;1.00
5980;DHT22;3016;50.308;8.258;2022-09-09T10:01:50;21.40;1.00
5980;DHT22;3016;50.308;8.258;2022-09-09T10:08:11;21.00;1.00
5980;DHT22;3016;50.308;8.258;2022-09-09T10:11:40;20.90;1.00
5980;DHT22;3016;50.308;8.258;2022-09-09T10:22:03;20.30;1.00
5980;DHT22;3016;50.308;8.258;2022-09-09T10:38:45;19.90;1.00
5980;DHT22;3016;50.308;8.258;2022-09-09T10:41:55;20.20;1.00
5980;DHT22;3016;50.308;8.258;2022-09-09T10:45:18;20.60;1.00
5980;DHT22;3016;50.308;8.258;2022-09-09T10:48:36;21.20;1.00
5980;DHT22;3016;50.308;8.258;2022-09-09T10:55:12;21.30;1.00
5980;DHT22;3016;50.308;8.258;2022-09-09T10:58:27;21.10;1.00
5980;DHT22;3016;50.308;8.258;2022-09-09T11:01:45;21.00;1.00
5980;DHT22;3016;50.308;8.258;2022-09-09T11:04:55;20.90;1.00
5980;DHT22;3016;50.308;8.258;2022-09-09T11:08:04;20.90;1.00
5980;DHT22;3016;50.308;8.258;2022-09-09T11:11:27;20.90;1.00
5980;DHT22;3016;50.308;8.258;2022-09-09T11:14:47;21.00;1.00
5980;DHT22;3016;50.308;8.258;2022-09-09T11:17:55;21.00;1.00
5980;DHT22;3016;50.308;8.258;2022-09-09T11:21:00;20.90;1.00
5980;DHT22;3016;50.308;8.258;2022-09-09T11:24:08;21.10;1.00
5980;DHT22;3016;50.308;8.258;2022-09-09T11:27:47;21.00;1.00
5980;DHT22;3016;50.308;8.258;2022-09-09T11:31:21;20.90;1.00
5980;DHT22;3016;50.308;8.258;2022-09-09T11:38:26;20.90;1.00
5980;DHT22;3016;50.308;8.258;2022-09-09T11:41:33;20.90;1.00
5980;DHT22;3016;50.308;8.258;2022-09-09T11:44:36;20.90;1.00
5980;DHT22;3016;50.308;8.258;2022-09-09T11:47:37;21.10;1.00
5980;DHT22;3016;50.308;8.258;2022-09-09T11:50:38;21.60;1.00
5980;DHT22;3016;50.308;8.258;2022-09-09T11:53:55;22.20;1.00
5980;DHT22;3016;50.308;8.258;2022-09-09T11:56:59;22.10;1.00
5980;DHT22;3016;50.308;8.258;2022-09-09T12:00:00;22.00;1.00
5980;DHT22;3016;50.308;8.258;2022-09-09T12:03:01;22.40;1.00
5980;DHT22;3016;50.308;8.258;2022-09-09T12:09:32;22.40;1.00
5980;DHT22;3016;50.308;8.258;2022-09-09T12:12:38;23.00;1.00
5980;DHT22;3016;50.308;8.258;2022-09-09T12:15:51;23.10;1.00
5980;DHT22;3016;50.308;8.258;2022-09-09T12:19:06;22.50;1.00
5980;DHT22;3016;50.308;8.258;2022-09-09T12:22:29;22.00;1.00
5980;DHT22;3016;50.308;8.258;2022-09-09T12:32:28;23.00;1.00
5980;DHT22;3016;50.308;8.258;2022-09-09T12:35:31;22.80;1.00
5980;DHT22;3016;50.308;8.258;2022-09-09T12:38:39;22.70;1.00
5980;DHT22;3016;50.308;8.258;2022-09-09T12:41:51;23.00;1.00
5980;DHT22;3016;50.308;8.258;2022-09-09T12:44:59;22.80;1.00
5980;DHT22;3016;50.308;8.258;2022-09-09T12:48:11;22.40;1.00
5980;DHT22;3016;50.308;8.258;2022-09-09T12:51:28;22.40;1.00
5980;DHT22;3016;50.308;8.258;2022-09-09T12:54:33;22.70;1.00
5980;DHT22;3016;50.308;8.258;2022-09-09T12:57:36;22.90;1.00
5980;DHT22;3016;50.308;8.258;2022-09-09T13:00:49;22.60;1.00
5980;DHT22;3016;50.308;8.258;2022-09-09T13:03:57;22.70;1.00
5980;DHT22;3016;50.308;8.258;2022-09-09T13:07:07;22.90;1.00
5980;DHT22;3016;50.308;8.258;2022-09-09T13:10:11;23.00;1.00
5980;DHT22;3016;50.308;8.258;2022-09-09T13:13:19;23.30;1.00
5980;DHT22;3016;50.308;8.258;2022-09-09T13:16:29;23.20;1.00
5980;DHT22;3016;50.308;8.258;2022-09-09T13:19:35;23.20;1.00
5980;DHT22;3016;50.308;8.258;2022-09-09T13:22:38;23.10;1.00
5980;DHT22;3016;50.308;8.258;2022-09-09T13:25:40;23.20;1.00
5980;DHT22;3016;50.308;8.258;2022-09-09T13:28:41;23.30;1.00
5980;DHT22;3016;50.308;8.258;2022-09-09T13:31:42;23.40;1.00
5980;DHT22;3016;50.308;8.258;2022-09-09T13:34:51;23.70;1.00
5980;DHT22;3016;50.308;8.258;2022-09-09T13:37:53;23.60;1.00
5980;DHT22;3016;50.308;8.258;2022-09-09T13:41:18;23.60;1.00
5980;DHT22;3016;50.308;8.258;2022-09-09T13:44:27;23.70;1.00
5980;DHT22;3016;50.308;8.258;2022-09-09T13:47:32;23.60;1.00
5980;DHT22;3016;50.308;8.258;2022-09-09T13:50:34;23.60;1.00
5980;DHT22;3016;50.308;8.258;2022-09-09T13:53:35;23.30;1.00
5980;DHT22;3016;50.308;8.258;2022-09-09T13:56:37;23.00;1.00
5980;DHT22;3016;50.308;8.258;2022-09-09T13:59:39;22.70;1.00
5980;DHT22;3016;50.308;8.258;2022-09-09T14:02:39;22.30;1.00
5980;DHT22;3016;50.308;8.258;2022-09-09T14:05:40;21.90;1.00
5980;DHT22;3016;50.308;8.258;2022-09-09T14:08:41;21.60;1.00
5980;DHT22;3016;50.308;8.258;2022-09-09T14:11:42;21.30;1.00
5980;DHT22;3016;50.308;8.258;2022-09-09T14:14:44;21.20;1.00
5980;DHT22;3016;50.308;8.258;2022-09-09T14:17:45;21.00;1.00
5980;DHT22;3016;50.308;8.258;2022-09-09T14:20:45;20.90;1.00
5980;DHT22;3016;50.308;8.258;2022-09-09T14:23:46;20.70;1.00
5980;DHT22;3016;50.308;8.258;2022-09-09T14:26:47;20.50;1.00
5980;DHT22;3016;50.308;8.258;2022-09-09T14:29:48;20.50;1.00
5980;DHT22;3016;50.308;8.258;2022-09-09T14:32:48;20.40;1.00
5980;DHT22;3016;50.308;8.258;2022-09-09T14:35:59;20.20;1.00
5980;DHT22;3016;50.308;8.258;2022-09-09T14:39:00;19.90;1.00
5980;DHT22;3016;50.308;8.258;2022-09-09T14:42:02;19.90;1.00
5980;DHT22;3016;50.308;8.258;2022-09-09T14:45:02;20.10;1.00
5980;DHT22;3016;50.308;8.258;2022-09-09T14:48:04;20.20;1.00
5980;DHT22;3016;50.308;8.258;2022-09-09T14:51:25;20.20;1.00
5980;DHT22;3016;50.308;8.258;2022-09-09T14:54:28;20.20;1.00
5980;DHT22;3016;50.308;8.258;2022-09-09T14:57:29;20.40;1.00
5980;DHT22;3016;50.308;8.258;2022-09-09T15:00:30;20.70;1.00
5980;DHT22;3016;50.308;8.258;2022-09-09T15:03:31;21.00;1.00
5980;DHT22;3016;50.308;8.258;2022-09-09T15:06:34;21.20;1.00
5980;DHT22;3016;50.308;8.258;2022-09-09T15:09:38;21.00;1.00
5980;DHT22;3016;50.308;8.258;2022-09-09T15:12:39;20.90;1.00
5980;DHT22;3016;50.308;8.258;2022-09-09T15:15:42;20.80;1.00
5980;DHT22;3016;50.308;8.258;2022-09-09T15:18:44;20.30;1.00
5980;DHT22;3016;50.308;8.258;2022-09-09T15:21:46;19.90;1.00
5980;DHT22;3016;50.308;8.258;2022-09-09T15:24:47;19.60;1.00
5980;DHT22;3016;50.308;8.258;2022-09-09T15:27:48;19.40;1.00
5980;DHT22;3016;50.308;8.258;2022-09-09T15:30:50;19.20;1.00
5980;DHT22;3016;50.308;8.258;2022-09-09T15:33:56;19.20;1.00
5980;DHT22;3016;50.308;8.258;2022-09-09T15:37:01;19.10;1.00
5980;DHT22;3016;50.308;8.258;2022-09-09T15:40:02;18.90;1.00
